Ada — ERJD — position and weather

sailwx.info

Track history (hours):
 
Tides and Currents Weather Stations Pressure Air Temp Water Temp Dewpoint Dewpoint Depression Visibility Wind Speed Wind Dir Waves Ship Positions

Ada

Last reported at 2014-Jul-24 16:04 UTC. Time now 2014-Jul-25 03:46 UTC.
Position N 37°56' E 026°23'.

Length 73 m; draft 3.8 m.

Type: Cargo ship. MMSI: 214181004.

Date/timePositionNaut miles runAvg speedWind from/ knotsBaromVisibWave heightAir tempDewpointWater temp
2014-Jul-24 16:04N 37°56' E 026°23'5 7.0
2014-Jul-24 15:23N 37°52' E 026°26'  
2014-Jul-21 20:29N 36°58' E 026°31'3 8.0
2014-Jul-21 20:04N 36°57' E 026°28'4 8.1
2014-Jul-21 19:33N 36°55' E 026°23'9 7.7
2014-Jul-21 18:22N 36°52' E 026°12'16 7.6
2014-Jul-21 16:15N 36°46' E 025°54'5 7.0
2014-Jul-21 15:33N 36°44' E 025°48'8 7.2
2014-Jul-21 14:23N 36°41' E 025°38'6 7.4
2014-Jul-21 13:33N 36°38' E 025°31'7 6.7
2014-Jul-21 12:33N 36°36' E 025°24'8 7.2
2014-Jul-21 11:29N 36°37' E 025°14'7 7.1
2014-Jul-21 10:27N 36°35' E 025°05'7 7.1
2014-Jul-21 09:27N 36°33' E 024°56'9241020.9
2014-Jul-21 08:33N 21°09' E 024°49'922645.8
2014-Jul-21 07:07N 36°31' E 024°36'  
2014-Jul-18 22:14N 36°32' E 015°01'6 8.9
2014-Jul-18 21:33N 36°30' E 014°54'10 8.9
2014-Jul-18 20:22N 36°29' E 014°41'7 8.7
2014-Jul-18 19:31N 36°29' E 014°32'9 8.8
2014-Jul-18 18:33N 36°28' E 014°22'9 8.7
2014-Jul-18 17:33N 36°26' E 014°11'8 8.5
2014-Jul-18 16:33N 36°25' E 014°00'9 8.6
2014-Jul-18 15:33N 36°22' E 013°50'9 8.5
2014-Jul-18 14:33N 36°20' E 013°40'8 8.3
2014-Jul-18 13:33N 36°17' E 013°31'8 8.1
2014-Jul-18 12:33N 36°14' E 013°21'8 8.2
2014-Jul-18 11:33N 36°13' E 013°11'9 8.7
2014-Jul-18 10:34N 36°12' E 013°00'9 8.7
2014-Jul-18 09:33N 36°11' E 012°50'  
Track history (hours):
 
Tides and Currents Weather Stations Pressure Air Temp Water Temp Dewpoint Dewpoint Depression Visibility Wind Speed Wind Dir Waves Ship Positions

Ada

Last reported at 2014-Jul-24 16:04 UTC. Time now 2014-Jul-25 03:46 UTC.
Position N 37°56' E 026°23'.

Length 73 m; draft 3.8 m.

Type: Cargo ship. MMSI: 214181004.

Date/timePositionNaut miles runAvg speedWind from/ knotsBaromVisibWave heightAir tempDewpointWater temp
2014-Jul-24 16:04N 37°56' E 026°23'5 7.0
2014-Jul-24 15:23N 37°52' E 026°26'  
2014-Jul-21 20:29N 36°58' E 026°31'3 8.0
2014-Jul-21 20:04N 36°57' E 026°28'4 8.1
2014-Jul-21 19:33N 36°55' E 026°23'9 7.7
2014-Jul-21 18:22N 36°52' E 026°12'16 7.6
2014-Jul-21 16:15N 36°46' E 025°54'5 7.0
2014-Jul-21 15:33N 36°44' E 025°48'8 7.2
2014-Jul-21 14:23N 36°41' E 025°38'6 7.4
2014-Jul-21 13:33N 36°38' E 025°31'7 6.7
2014-Jul-21 12:33N 36°36' E 025°24'8 7.2
2014-Jul-21 11:29N 36°37' E 025°14'7 7.1
2014-Jul-21 10:27N 36°35' E 025°05'7 7.1
2014-Jul-21 09:27N 36°33' E 024°56'9241020.9
2014-Jul-21 08:33N 21°09' E 024°49'922645.8
2014-Jul-21 07:07N 36°31' E 024°36'  
2014-Jul-18 22:14N 36°32' E 015°01'6 8.9
2014-Jul-18 21:33N 36°30' E 014°54'10 8.9
2014-Jul-18 20:22N 36°29' E 014°41'7 8.7
2014-Jul-18 19:31N 36°29' E 014°32'9 8.8
2014-Jul-18 18:33N 36°28' E 014°22'9 8.7
2014-Jul-18 17:33N 36°26' E 014°11'8 8.5
2014-Jul-18 16:33N 36°25' E 014°00'9 8.6
2014-Jul-18 15:33N 36°22' E 013°50'9 8.5
2014-Jul-18 14:33N 36°20' E 013°40'8 8.3
2014-Jul-18 13:33N 36°17' E 013°31'8 8.1
2014-Jul-18 12:33N 36°14' E 013°21'8 8.2
2014-Jul-18 11:33N 36°13' E 013°11'9 8.7
2014-Jul-18 10:34N 36°12' E 013°00'9 8.7
2014-Jul-18 09:33N 36°11' E 012°50'  

Dump ship's entire track history